createdAt,value
2022-09-17T00:00:35.218Z,8.43
2022-09-17T00:03:37.855Z,7.85
2022-09-17T00:06:40.604Z,8.23
2022-09-17T00:09:44.223Z,8.48
2022-09-17T00:12:47.467Z,7.90
2022-09-17T00:15:51.390Z,9.57
2022-09-17T00:18:57.550Z,8.27
2022-09-17T00:22:00.027Z,11.47
2022-09-17T00:25:02.729Z,7.53
2022-09-17T00:28:06.827Z,9.60
2022-09-17T00:31:09.871Z,7.45
2022-09-17T00:34:12.449Z,8.15
2022-09-17T00:37:14.978Z,8.37
2022-09-17T00:40:18.288Z,8.25
2022-09-17T00:43:35.958Z,8.68
2022-09-17T00:46:42.439Z,8.15
2022-09-17T00:49:44.993Z,8.20
2022-09-17T00:52:51.882Z,7.60
2022-09-17T00:56:03.623Z,9.30
2022-09-17T00:59:06.789Z,8.00
2022-09-17T01:02:09.414Z,9.00
2022-09-17T01:05:13.415Z,9.57
2022-09-17T01:08:34.419Z,7.87
2022-09-17T01:12:01.216Z,8.63
2022-09-17T01:15:16.129Z,8.73
2022-09-17T01:18:40.054Z,8.20
2022-09-17T01:22:00.858Z,9.02
2022-09-17T01:25:30.160Z,8.17
2022-09-17T01:28:56.329Z,7.87
2022-09-17T01:32:09.166Z,8.55
2022-09-17T01:35:26.362Z,8.75
2022-09-17T01:38:33.633Z,7.90
2022-09-17T01:41:42.274Z,9.90
2022-09-17T01:44:55.975Z,10.57
2022-09-17T01:48:00.858Z,10.40
2022-09-17T01:51:09.253Z,9.77
2022-09-17T01:54:25.667Z,11.43
2022-09-17T01:57:36.905Z,7.93
2022-09-17T02:00:44.991Z,8.75
2022-09-17T02:03:58.274Z,8.65
2022-09-17T02:07:06.335Z,7.95
2022-09-17T02:10:24.663Z,10.20
2022-09-17T02:13:33.270Z,9.17
2022-09-17T02:16:37.939Z,7.87
2022-09-17T02:19:40.726Z,7.07
2022-09-17T02:22:48.760Z,11.15
2022-09-17T02:25:57.853Z,8.60
2022-09-17T02:29:07.712Z,7.47
2022-09-17T02:32:11.425Z,7.43
2022-09-17T02:35:15.386Z,8.23
2022-09-17T02:38:26.309Z,8.07
2022-09-17T02:41:40.826Z,7.85
2022-09-17T02:45:22.223Z,10.17
2022-09-17T02:48:43.417Z,7.87
2022-09-17T02:51:59.973Z,8.50
2022-09-17T02:55:20.658Z,7.80
2022-09-17T02:58:47.136Z,7.28
2022-09-17T03:01:57.317Z,9.13
2022-09-17T03:05:00.263Z,10.98
2022-09-17T03:08:02.956Z,7.62
2022-09-17T03:11:06.075Z,8.82
2022-09-17T03:14:08.573Z,8.00
2022-09-17T03:17:11.995Z,8.90
2022-09-17T03:20:16.292Z,7.55
2022-09-17T03:23:18.732Z,8.45
2022-09-17T03:26:21.319Z,8.10
2022-09-17T03:29:26.781Z,9.27
2022-09-17T03:32:29.301Z,8.03
2022-09-17T03:35:31.711Z,10.88
2022-09-17T03:38:38.888Z,7.68
2022-09-17T03:41:41.675Z,9.55
2022-09-17T03:44:45.456Z,8.13
2022-09-17T03:47:48.020Z,8.30
2022-09-17T03:50:51.064Z,7.50
2022-09-17T03:53:53.542Z,9.20
2022-09-17T03:56:56.241Z,8.07
2022-09-17T03:59:58.885Z,10.63
2022-09-17T04:03:01.985Z,9.10
2022-09-17T04:06:04.948Z,7.87
2022-09-17T04:09:07.683Z,9.82
2022-09-17T04:12:10.125Z,9.60
2022-09-17T04:15:13.056Z,9.13
2022-09-17T04:18:15.737Z,11.13
2022-09-17T04:21:18.306Z,10.23
2022-09-17T04:24:20.730Z,9.70
2022-09-17T04:27:24.285Z,9.02
2022-09-17T04:30:26.711Z,8.98
2022-09-17T04:33:29.577Z,10.10
2022-09-17T04:36:32.012Z,8.50
2022-09-17T04:39:34.699Z,7.95
2022-09-17T04:42:37.115Z,8.55
2022-09-17T04:45:39.659Z,8.55
2022-09-17T04:48:42.054Z,7.73
2022-09-17T04:51:44.607Z,9.93
2022-09-17T04:54:47.070Z,9.50
2022-09-17T04:57:51.124Z,10.43
2022-09-17T05:00:53.712Z,9.02
2022-09-17T05:03:56.219Z,9.77
2022-09-17T05:06:58.665Z,8.57
2022-09-17T05:10:01.219Z,7.97
2022-09-17T05:13:06.723Z,8.35
2022-09-17T05:16:09.364Z,8.70
2022-09-17T05:19:11.909Z,8.83
2022-09-17T05:22:18.374Z,7.82
2022-09-17T05:25:26.610Z,8.30
2022-09-17T05:28:29.446Z,8.77
2022-09-17T05:31:32.133Z,10.35
2022-09-17T05:34:34.856Z,8.73
2022-09-17T05:37:37.633Z,9.55
2022-09-17T05:40:40.202Z,9.02
2022-09-17T05:43:45.804Z,9.02
2022-09-17T05:46:48.626Z,9.40
2022-09-17T05:49:51.429Z,8.50
2022-09-17T05:52:54.944Z,8.25
2022-09-17T05:55:58.441Z,8.00
2022-09-17T05:59:01.377Z,8.68
2022-09-17T06:02:04.388Z,9.45
2022-09-17T06:05:07.774Z,10.60
2022-09-17T06:08:10.394Z,9.55
2022-09-17T06:11:13.096Z,14.25
2022-09-17T06:14:16.450Z,11.00
2022-09-17T06:17:22.072Z,9.90
2022-09-17T06:20:25.056Z,9.40
2022-09-17T06:23:28.515Z,8.57
2022-09-17T06:26:31.075Z,8.80
2022-09-17T06:29:33.951Z,9.45
2022-09-17T06:32:36.452Z,11.18
2022-09-17T06:35:39.005Z,12.10
2022-09-17T06:38:41.746Z,14.30
2022-09-17T06:41:44.654Z,12.18
2022-09-17T06:44:47.545Z,11.20
2022-09-17T06:47:50.005Z,9.95
2022-09-17T06:50:54.650Z,9.87
2022-09-17T06:53:57.212Z,8.95
2022-09-17T06:56:59.679Z,10.18
2022-09-17T07:00:03.409Z,9.32
2022-09-17T07:03:06.538Z,9.45
2022-09-17T07:06:13.020Z,8.97
2022-09-17T07:09:15.642Z,11.07
2022-09-17T07:12:18.275Z,9.23
2022-09-17T07:15:21.013Z,9.02
2022-09-17T07:18:24.007Z,7.37
2022-09-17T07:21:26.556Z,7.80
2022-09-17T07:24:32.699Z,8.05
2022-09-17T07:27:35.762Z,10.40
2022-09-17T07:30:38.465Z,8.73
2022-09-17T07:33:41.557Z,8.50
2022-09-17T07:36:47.327Z,8.87
2022-09-17T07:39:49.874Z,8.90
2022-09-17T07:42:52.666Z,8.93
2022-09-17T07:45:57.381Z,9.18
2022-09-17T07:49:00.429Z,9.38
2022-09-17T07:52:06.461Z,7.33
2022-09-17T07:55:09.457Z,8.07
2022-09-17T07:58:12.136Z,8.05
2022-09-17T08:01:18.254Z,9.90
2022-09-17T08:04:21.957Z,7.65
2022-09-17T08:07:24.502Z,7.37
2022-09-17T08:10:30.264Z,7.22
2022-09-17T08:13:33.100Z,8.38
2022-09-17T08:16:35.699Z,7.10
2022-09-17T08:19:38.190Z,8.93
2022-09-17T08:22:40.959Z,8.70
2022-09-17T08:25:43.377Z,7.50
2022-09-17T08:28:51.283Z,7.05
2022-09-17T08:31:53.773Z,7.07
2022-09-17T08:34:58.311Z,6.65
2022-09-17T08:38:01.126Z,8.67
2022-09-17T08:41:12.874Z,8.98
2022-09-17T08:44:24.920Z,7.65
2022-09-17T08:47:36.417Z,6.07
2022-09-17T08:50:42.605Z,7.32
2022-09-17T08:53:54.132Z,7.23
2022-09-17T08:57:29.923Z,7.35
2022-09-17T09:01:03.439Z,6.97
2022-09-17T09:04:19.757Z,7.07
2022-09-17T09:07:35.158Z,8.13
2022-09-17T09:10:55.764Z,8.23
2022-09-17T09:14:17.248Z,7.93
2022-09-17T09:17:23.516Z,9.95
2022-09-17T09:20:38.179Z,7.75
2022-09-17T09:23:44.416Z,8.40
2022-09-17T09:26:58.624Z,6.77
2022-09-17T09:30:10.613Z,7.65
2022-09-17T09:33:15.208Z,6.80
2022-09-17T09:36:22.099Z,7.90
2022-09-17T09:39:28.679Z,8.60
2022-09-17T09:42:35.792Z,7.53
2022-09-17T09:45:56.598Z,7.53
2022-09-17T09:49:11.906Z,7.12
2022-09-17T09:52:14.473Z,9.43
2022-09-17T09:55:26.676Z,7.68
2022-09-17T09:58:38.880Z,8.37
2022-09-17T10:01:43.313Z,8.18
2022-09-17T10:04:49.199Z,7.55
2022-09-17T10:07:54.154Z,9.38
2022-09-17T10:10:58.424Z,7.72
2022-09-17T10:14:24.663Z,7.17
2022-09-17T10:17:27.598Z,5.57
2022-09-17T10:20:32.278Z,8.05
2022-09-17T10:23:37.055Z,7.95
2022-09-17T10:26:40.618Z,5.45
2022-09-17T10:29:46.459Z,7.40
2022-09-17T10:33:11.995Z,5.72
2022-09-17T10:36:14.831Z,6.40
2022-09-17T10:39:27.628Z,8.25
2022-09-17T10:42:30.905Z,6.90
2022-09-17T10:45:35.267Z,6.57
2022-09-17T10:48:53.399Z,5.82
2022-09-17T10:52:32.759Z,5.82
2022-09-17T10:55:42.592Z,6.05
2022-09-17T10:59:00.138Z,6.50
2022-09-17T11:02:21.467Z,4.03
2022-09-17T11:05:43.150Z,6.37
2022-09-17T11:08:54.048Z,4.53
2022-09-17T11:12:22.102Z,5.60
2022-09-17T11:15:31.161Z,6.90
2022-09-17T11:18:40.762Z,3.43
2022-09-17T11:21:48.576Z,4.65
2022-09-17T11:25:28.765Z,5.40
2022-09-17T11:28:38.108Z,6.73
2022-09-17T11:31:58.538Z,4.10
2022-09-17T11:35:30.309Z,4.32
2022-09-17T11:38:49.863Z,7.82
2022-09-17T11:41:53.438Z,5.50
2022-09-17T11:45:02.643Z,5.70
2022-09-17T11:48:13.497Z,5.60
2022-09-17T11:51:25.200Z,4.25
2022-09-17T11:54:39.881Z,6.82
2022-09-17T11:57:43.439Z,5.40
2022-09-17T12:00:53.030Z,3.00
2022-09-17T12:04:12.944Z,3.83
2022-09-17T12:07:21.484Z,5.55
2022-09-17T12:10:36.419Z,5.95
2022-09-17T12:13:51.708Z,5.05
2022-09-17T12:16:59.026Z,4.40
2022-09-17T12:20:24.716Z,5.57
2022-09-17T12:23:32.413Z,4.47
2022-09-17T12:26:56.219Z,5.65
2022-09-17T12:30:10.864Z,6.75
2022-09-17T12:33:34.168Z,4.47
2022-09-17T12:36:56.481Z,6.37
2022-09-17T12:40:06.281Z,5.68
2022-09-17T12:43:39.196Z,4.78
2022-09-17T12:47:03.602Z,5.90
2022-09-17T12:50:35.274Z,4.23
2022-09-17T12:53:44.315Z,6.35
2022-09-17T12:57:02.175Z,5.35
2022-09-17T13:00:15.576Z,4.50
2022-09-17T13:03:33.041Z,5.22
2022-09-17T13:07:15.806Z,4.10
2022-09-17T13:10:38.161Z,5.20
2022-09-17T13:14:26.759Z,6.70
2022-09-17T13:18:00.862Z,3.95
2022-09-17T13:21:30.912Z,3.60
2022-09-17T13:24:34.538Z,4.10
2022-09-17T13:27:38.037Z,4.53
2022-09-17T13:30:57.816Z,4.22
2022-09-17T13:34:01.666Z,4.75
2022-09-17T13:37:05.533Z,4.43
2022-09-17T13:40:25.425Z,4.50
2022-09-17T13:43:28.928Z,5.18
2022-09-17T13:46:33.815Z,5.50
2022-09-17T13:49:36.745Z,4.65
2022-09-17T13:52:50.237Z,5.53
2022-09-17T13:56:02.048Z,3.57
2022-09-17T13:59:08.830Z,3.62
2022-09-17T14:02:14.407Z,4.25
2022-09-17T14:05:32.900Z,6.32
2022-09-17T14:08:44.577Z,4.95
2022-09-17T14:11:47.113Z,5.33
2022-09-17T14:14:52.453Z,3.83
2022-09-17T14:17:55.077Z,5.87
2022-09-17T14:21:06.875Z,3.87
2022-09-17T14:24:27.217Z,4.65
2022-09-17T14:27:51.144Z,4.87
2022-09-17T14:30:55.036Z,4.20
2022-09-17T14:33:57.965Z,4.32
2022-09-17T14:37:00.460Z,5.25
2022-09-17T14:40:09.579Z,6.57
2022-09-17T14:43:41.467Z,4.37
2022-09-17T14:47:03.737Z,3.90
2022-09-17T14:50:23.007Z,4.90
2022-09-17T14:53:25.877Z,4.85
2022-09-17T14:56:31.411Z,5.75
2022-09-17T14:59:46.918Z,4.80
2022-09-17T15:02:52.665Z,5.60
2022-09-17T15:05:55.892Z,5.80
2022-09-17T15:09:01.446Z,5.12
2022-09-17T15:12:05.718Z,5.85
2022-09-17T15:15:18.533Z,6.00
2022-09-17T15:18:22.469Z,6.95
2022-09-17T15:21:35.103Z,5.78
2022-09-17T15:24:50.507Z,5.53
2022-09-17T15:27:56.250Z,6.03
2022-09-17T15:31:40.342Z,6.27
2022-09-17T15:38:27.456Z,7.32
2022-09-17T15:41:33.898Z,7.50
2022-09-17T15:44:39.562Z,5.80
2022-09-17T15:47:53.013Z,6.30
2022-09-17T15:51:01.191Z,8.30
2022-09-17T15:54:05.913Z,8.57
2022-09-17T15:57:14.427Z,5.82
2022-09-17T16:00:18.079Z,6.43
2022-09-17T16:03:39.968Z,6.33
2022-09-17T16:07:08.951Z,17.20
2022-09-17T16:10:14.056Z,10.90
2022-09-17T16:13:16.506Z,6.03
2022-09-17T16:16:24.636Z,6.20
2022-09-17T16:19:27.356Z,7.63
2022-09-17T16:22:30.851Z,5.97
2022-09-17T16:25:34.155Z,5.37
2022-09-17T16:28:37.218Z,9.05
2022-09-17T16:31:42.609Z,5.50
2022-09-17T16:34:45.515Z,6.23
2022-09-17T16:37:52.861Z,6.82
2022-09-17T16:40:55.373Z,8.27
2022-09-17T16:43:59.425Z,5.97
2022-09-17T16:47:02.011Z,6.50
2022-09-17T16:50:07.426Z,4.90
2022-09-17T16:53:13.250Z,5.82
2022-09-17T16:56:17.644Z,5.18
2022-09-17T16:59:23.345Z,7.03
2022-09-17T17:02:26.220Z,5.78
2022-09-17T17:05:29.050Z,6.00
2022-09-17T17:08:32.914Z,6.82
2022-09-17T17:11:35.450Z,5.25
2022-09-17T17:14:39.722Z,5.95
2022-09-17T17:17:45.581Z,6.75
2022-09-17T17:20:49.179Z,4.67
2022-09-17T17:23:57.807Z,4.12
2022-09-17T17:27:02.158Z,5.28
2022-09-17T17:30:09.447Z,5.35
2022-09-17T17:33:14.036Z,5.32
2022-09-17T17:36:16.641Z,5.30
2022-09-17T17:39:19.229Z,5.22
2022-09-17T17:42:22.049Z,4.75
2022-09-17T17:45:24.637Z,7.37
2022-09-17T17:48:27.846Z,4.72
2022-09-17T17:51:30.479Z,4.97
2022-09-17T17:54:33.555Z,4.70
2022-09-17T17:57:37.039Z,4.03
2022-09-17T18:00:41.903Z,5.20
2022-09-17T18:03:45.332Z,5.57
2022-09-17T18:06:48.273Z,4.93
2022-09-17T18:09:51.137Z,8.32
2022-09-17T18:12:53.936Z,6.03
2022-09-17T18:16:01.164Z,5.57
2022-09-17T18:19:03.715Z,6.53
2022-09-17T18:22:06.568Z,4.73
2022-09-17T18:25:09.933Z,6.62
2022-09-17T18:28:12.614Z,4.65
2022-09-17T18:31:25.009Z,5.07
2022-09-17T18:34:27.751Z,4.87
2022-09-17T18:37:33.281Z,4.37
2022-09-17T18:40:39.511Z,4.70
2022-09-17T18:43:42.721Z,4.40
2022-09-17T18:46:48.084Z,4.65
2022-09-17T18:49:50.857Z,6.47
2022-09-17T18:52:53.691Z,5.90
2022-09-17T18:55:59.128Z,2.78
2022-09-17T18:59:07.773Z,2.83
2022-09-17T19:02:13.157Z,3.47
2022-09-17T19:05:18.039Z,2.70
2022-09-17T19:08:24.114Z,2.97
2022-09-17T19:11:26.870Z,2.97
2022-09-17T19:14:29.405Z,3.25
2022-09-17T19:17:32.047Z,3.12
2022-09-17T19:20:37.657Z,3.22
2022-09-17T19:23:41.737Z,2.57
2022-09-17T19:26:47.656Z,3.47
2022-09-17T19:29:53.356Z,4.60
2022-09-17T19:32:56.096Z,4.37
2022-09-17T19:36:02.984Z,3.50
2022-09-17T19:39:05.692Z,3.80
2022-09-17T19:42:08.425Z,5.45
2022-09-17T19:45:11.111Z,3.90
2022-09-17T19:48:14.531Z,5.37
2022-09-17T19:51:17.878Z,3.37
2022-09-17T19:54:20.607Z,2.83
2022-09-17T19:57:23.270Z,4.10
2022-09-17T20:00:26.258Z,5.97
2022-09-17T20:03:29.672Z,4.37
2022-09-17T20:06:35.134Z,4.60
2022-09-17T20:09:37.670Z,2.97
2022-09-17T20:12:40.787Z,4.10
2022-09-17T20:15:47.634Z,6.62
2022-09-17T20:18:50.456Z,4.75
2022-09-17T20:21:53.009Z,3.85
2022-09-17T20:24:55.866Z,5.77
2022-09-17T20:27:59.197Z,3.92
2022-09-17T20:31:06.947Z,3.62
2022-09-17T20:34:10.882Z,4.00
2022-09-17T20:37:14.049Z,3.47
2022-09-17T20:40:17.560Z,3.97
2022-09-17T20:43:20.594Z,5.03
2022-09-17T20:46:28.547Z,3.05
2022-09-17T20:49:31.813Z,4.30
2022-09-17T20:52:34.355Z,3.95
2022-09-17T20:55:37.064Z,3.70
2022-09-17T20:58:45.881Z,4.93
2022-09-17T21:01:50.068Z,4.75
2022-09-17T21:04:54.366Z,4.68
2022-09-17T21:07:57.685Z,3.70
2022-09-17T21:11:09.498Z,4.80
2022-09-17T21:14:12.570Z,5.22
2022-09-17T21:17:15.087Z,4.15
2022-09-17T21:20:18.401Z,5.90
2022-09-17T21:23:29.157Z,5.20
2022-09-17T21:26:32.268Z,4.83
2022-09-17T21:29:34.789Z,5.18
2022-09-17T21:32:38.004Z,4.87
2022-09-17T21:35:40.592Z,4.65
2022-09-17T21:38:43.162Z,5.07
2022-09-17T21:41:46.148Z,4.43
2022-09-17T21:44:49.345Z,6.45
2022-09-17T21:47:56.851Z,4.95
2022-09-17T21:51:11.045Z,6.78
2022-09-17T21:54:17.077Z,5.87
2022-09-17T21:57:19.784Z,5.90
2022-09-17T22:00:23.495Z,5.70
2022-09-17T22:03:29.214Z,6.47
2022-09-17T22:06:32.143Z,6.72
2022-09-17T22:09:35.211Z,6.45
2022-09-17T22:12:37.796Z,5.90
2022-09-17T22:15:40.296Z,5.45
2022-09-17T22:18:46.832Z,6.20
2022-09-17T22:21:51.504Z,6.68
2022-09-17T22:24:54.053Z,5.25
2022-09-17T22:28:19.856Z,6.80
2022-09-17T22:31:23.396Z,10.43
2022-09-17T22:34:26.574Z,8.25
2022-09-17T22:37:29.142Z,5.80
2022-09-17T22:40:31.722Z,8.10
2022-09-17T22:43:35.516Z,6.70
2022-09-17T22:46:42.152Z,8.02
2022-09-17T22:49:45.079Z,6.72
2022-09-17T22:52:48.736Z,5.82
2022-09-17T22:55:55.878Z,6.43
2022-09-17T22:58:59.461Z,5.80
2022-09-17T23:02:02.080Z,7.90
2022-09-17T23:05:19.003Z,8.00
2022-09-17T23:08:27.646Z,6.22
2022-09-17T23:11:37.095Z,6.75
2022-09-17T23:14:39.618Z,7.70
2022-09-17T23:17:42.793Z,7.22
2022-09-17T23:21:19.316Z,6.62
2022-09-17T23:24:22.547Z,6.53
2022-09-17T23:27:28.280Z,6.78
2022-09-17T23:30:30.787Z,6.43
2022-09-17T23:33:34.248Z,6.30
2022-09-17T23:36:39.636Z,6.30
2022-09-17T23:39:45.921Z,8.93
2022-09-17T23:42:48.720Z,7.37
2022-09-17T23:45:57.600Z,6.27
2022-09-17T23:49:02.019Z,7.75
2022-09-17T23:52:04.905Z,7.35
2022-09-17T23:55:08.128Z,8.05
2022-09-17T23:58:10.827Z,6.28
